sensor_id;sensor_type;location;lat;lon;timestamp;temperature;humidity
59301;DHT22;45073;52.740;6.784;2023-03-01T00:01:45;0.70;82.50
59301;DHT22;45073;52.740;6.784;2023-03-01T00:04:11;0.70;84.20
59301;DHT22;45073;52.740;6.784;2023-03-01T00:06:36;0.70;82.90
59301;DHT22;45073;52.740;6.784;2023-03-01T00:09:03;0.70;83.60
59301;DHT22;45073;52.740;6.784;2023-03-01T00:11:30;0.70;86.60
59301;DHT22;45073;52.740;6.784;2023-03-01T00:13:57;0.60;85.50
59301;DHT22;45073;52.740;6.784;2023-03-01T00:16:27;0.60;87.00
59301;DHT22;45073;52.740;6.784;2023-03-01T00:18:54;0.60;90.30
59301;DHT22;45073;52.740;6.784;2023-03-01T00:21:21;0.60;90.90
59301;DHT22;45073;52.740;6.784;2023-03-01T00:23:48;0.60;88.90
59301;DHT22;45073;52.740;6.784;2023-03-01T00:26:15;0.50;86.50
59301;DHT22;45073;52.740;6.784;2023-03-01T00:28:41;0.50;87.70
59301;DHT22;45073;52.740;6.784;2023-03-01T00:31:10;0.40;87.50
59301;DHT22;45073;52.740;6.784;2023-03-01T00:33:36;0.50;88.00
59301;DHT22;45073;52.740;6.784;2023-03-01T00:36:03;0.40;88.00
59301;DHT22;45073;52.740;6.784;2023-03-01T00:38:29;0.40;89.40
59301;DHT22;45073;52.740;6.784;2023-03-01T00:40:55;0.40;90.60
59301;DHT22;45073;52.740;6.784;2023-03-01T00:43:21;0.30;88.90
59301;DHT22;45073;52.740;6.784;2023-03-01T00:45:47;0.30;88.90
59301;DHT22;45073;52.740;6.784;2023-03-01T00:48:13;0.30;89.60
59301;DHT22;45073;52.740;6.784;2023-03-01T00:50:38;0.30;87.70
59301;DHT22;45073;52.740;6.784;2023-03-01T00:53:04;0.20;89.70
59301;DHT22;45073;52.740;6.784;2023-03-01T00:55:30;0.30;90.50
59301;DHT22;45073;52.740;6.784;2023-03-01T00:57:56;0.30;90.80
59301;DHT22;45073;52.740;6.784;2023-03-01T01:00:22;0.20;91.80
59301;DHT22;45073;52.740;6.784;2023-03-01T01:02:50;0.20;90.90
59301;DHT22;45073;52.740;6.784;2023-03-01T01:05:16;0.20;90.70
59301;DHT22;45073;52.740;6.784;2023-03-01T01:07:47;0.10;90.10
59301;DHT22;45073;52.740;6.784;2023-03-01T01:10:13;0.10;90.50
59301;DHT22;45073;52.740;6.784;2023-03-01T01:12:46;0.10;91.40
59301;DHT22;45073;52.740;6.784;2023-03-01T01:15:12;0.00;91.60
59301;DHT22;45073;52.740;6.784;2023-03-01T01:17:40;0.00;91.00
59301;DHT22;45073;52.740;6.784;2023-03-01T01:20:06;0.00;91.60
59301;DHT22;45073;52.740;6.784;2023-03-01T01:22:32;0.00;91.50
59301;DHT22;45073;52.740;6.784;2023-03-01T01:24:58;0.00;91.10
59301;DHT22;45073;52.740;6.784;2023-03-01T01:27:24;-0.10;92.90
59301;DHT22;45073;52.740;6.784;2023-03-01T01:29:49;-0.10;92.70
59301;DHT22;45073;52.740;6.784;2023-03-01T01:32:15;-0.10;91.60
59301;DHT22;45073;52.740;6.784;2023-03-01T01:34:40;-0.10;92.30
59301;DHT22;45073;52.740;6.784;2023-03-01T01:37:06;-0.10;91.60
59301;DHT22;45073;52.740;6.784;2023-03-01T01:39:36;-0.10;92.60
59301;DHT22;45073;52.740;6.784;2023-03-01T01:42:02;-0.20;91.50
59301;DHT22;45073;52.740;6.784;2023-03-01T01:44:28;-0.20;91.90
59301;DHT22;45073;52.740;6.784;2023-03-01T01:47:12;-0.20;91.50
59301;DHT22;45073;52.740;6.784;2023-03-01T01:49:46;-0.30;93.90
59301;DHT22;45073;52.740;6.784;2023-03-01T01:57:41;-0.30;92.80
59301;DHT22;45073;52.740;6.784;2023-03-01T02:00:20;-0.30;92.80
59301;DHT22;45073;52.740;6.784;2023-03-01T02:02:48;-0.30;95.30
59301;DHT22;45073;52.740;6.784;2023-03-01T02:08:16;-0.30;95.40
59301;DHT22;45073;52.740;6.784;2023-03-01T02:10:44;-0.30;94.30
59301;DHT22;45073;52.740;6.784;2023-03-01T02:13:11;-0.30;95.10
59301;DHT22;45073;52.740;6.784;2023-03-01T02:15:39;-0.30;95.00
59301;DHT22;45073;52.740;6.784;2023-03-01T02:18:06;-0.30;94.90
59301;DHT22;45073;52.740;6.784;2023-03-01T02:23:11;-0.30;95.50
59301;DHT22;45073;52.740;6.784;2023-03-01T02:30:47;-0.40;95.70
59301;DHT22;45073;52.740;6.784;2023-03-01T02:33:33;-0.40;95.20
59301;DHT22;45073;52.740;6.784;2023-03-01T02:36:03;-0.50;98.90
59301;DHT22;45073;52.740;6.784;2023-03-01T02:38:30;-0.50;93.70
59301;DHT22;45073;52.740;6.784;2023-03-01T02:40:57;-0.60;94.00
59301;DHT22;45073;52.740;6.784;2023-03-01T02:43:25;-0.70;94.70
59301;DHT22;45073;52.740;6.784;2023-03-01T02:45:53;-0.70;97.40
59301;DHT22;45073;52.740;6.784;2023-03-01T02:48:22;-0.70;95.70
59301;DHT22;45073;52.740;6.784;2023-03-01T02:53:39;-0.70;97.10
59301;DHT22;45073;52.740;6.784;2023-03-01T02:56:07;-0.80;98.00
59301;DHT22;45073;52.740;6.784;2023-03-01T02:58:41;-0.80;97.30
59301;DHT22;45073;52.740;6.784;2023-03-01T03:01:11;-0.90;95.60
59301;DHT22;45073;52.740;6.784;2023-03-01T03:03:36;-0.90;96.00
59301;DHT22;45073;52.740;6.784;2023-03-01T03:06:02;-0.90;95.60
59301;DHT22;45073;52.740;6.784;2023-03-01T03:08:28;-1.00;96.10
59301;DHT22;45073;52.740;6.784;2023-03-01T03:10:53;-1.00;95.00
59301;DHT22;45073;52.740;6.784;2023-03-01T03:13:19;-1.10;95.00
59301;DHT22;45073;52.740;6.784;2023-03-01T03:15:45;-1.20;94.60
59301;DHT22;45073;52.740;6.784;2023-03-01T03:18:14;-1.30;94.90
59301;DHT22;45073;52.740;6.784;2023-03-01T03:20:41;-1.30;96.20
59301;DHT22;45073;52.740;6.784;2023-03-01T03:23:08;-1.30;96.50
59301;DHT22;45073;52.740;6.784;2023-03-01T03:25:33;-1.30;96.90
59301;DHT22;45073;52.740;6.784;2023-03-01T03:28:03;-1.30;96.30
59301;DHT22;45073;52.740;6.784;2023-03-01T03:30:36;-1.30;96.70
59301;DHT22;45073;52.740;6.784;2023-03-01T03:33:02;-1.30;98.00
59301;DHT22;45073;52.740;6.784;2023-03-01T03:35:33;-1.20;99.90
59301;DHT22;45073;52.740;6.784;2023-03-01T03:38:03;-1.20;99.90
59301;DHT22;45073;52.740;6.784;2023-03-01T03:40:38;-1.20;99.90
59301;DHT22;45073;52.740;6.784;2023-03-01T03:43:06;-1.20;99.90
59301;DHT22;45073;52.740;6.784;2023-03-01T03:45:33;-1.20;98.90
59301;DHT22;45073;52.740;6.784;2023-03-01T03:48:01;-1.20;98.60
59301;DHT22;45073;52.740;6.784;2023-03-01T03:50:26;-1.20;98.20
59301;DHT22;45073;52.740;6.784;2023-03-01T03:52:52;-1.20;99.90
59301;DHT22;45073;52.740;6.784;2023-03-01T03:55:18;-1.20;99.90
59301;DHT22;45073;52.740;6.784;2023-03-01T03:57:46;-1.20;98.40
59301;DHT22;45073;52.740;6.784;2023-03-01T04:00:21;-1.20;99.60
59301;DHT22;45073;52.740;6.784;2023-03-01T04:02:48;-1.20;99.90
59301;DHT22;45073;52.740;6.784;2023-03-01T04:05:16;-1.20;99.90
59301;DHT22;45073;52.740;6.784;2023-03-01T04:07:43;-1.30;99.90
59301;DHT22;45073;52.740;6.784;2023-03-01T04:10:15;-1.30;99.40
59301;DHT22;45073;52.740;6.784;2023-03-01T04:12:40;-1.40;99.80
59301;DHT22;45073;52.740;6.784;2023-03-01T04:15:10;-1.40;99.40
59301;DHT22;45073;52.740;6.784;2023-03-01T04:17:44;-1.40;99.90
59301;DHT22;45073;52.740;6.784;2023-03-01T04:20:12;-1.40;99.90
59301;DHT22;45073;52.740;6.784;2023-03-01T04:22:38;-1.40;99.60
59301;DHT22;45073;52.740;6.784;2023-03-01T04:25:04;-1.50;98.30
59301;DHT22;45073;52.740;6.784;2023-03-01T04:27:33;-1.60;96.90
59301;DHT22;45073;52.740;6.784;2023-03-01T04:29:59;-1.60;97.00
59301;DHT22;45073;52.740;6.784;2023-03-01T04:32:24;-1.60;97.00
59301;DHT22;45073;52.740;6.784;2023-03-01T04:34:50;-1.70;97.80
59301;DHT22;45073;52.740;6.784;2023-03-01T04:37:15;-1.70;98.00
59301;DHT22;45073;52.740;6.784;2023-03-01T04:39:41;-1.70;97.50
59301;DHT22;45073;52.740;6.784;2023-03-01T04:42:14;-1.70;98.60
59301;DHT22;45073;52.740;6.784;2023-03-01T04:44:40;-1.70;99.90
59301;DHT22;45073;52.740;6.784;2023-03-01T04:47:06;-1.70;99.90
59301;DHT22;45073;52.740;6.784;2023-03-01T04:49:31;-1.70;99.90
59301;DHT22;45073;52.740;6.784;2023-03-01T04:51:57;-1.70;99.90
59301;DHT22;45073;52.740;6.784;2023-03-01T04:54:33;-1.70;99.40
59301;DHT22;45073;52.740;6.784;2023-03-01T04:56:59;-1.70;98.30
59301;DHT22;45073;52.740;6.784;2023-03-01T04:59:25;-1.70;99.70
59301;DHT22;45073;52.740;6.784;2023-03-01T05:01:55;-1.70;99.90
59301;DHT22;45073;52.740;6.784;2023-03-01T05:04:24;-1.70;99.90
59301;DHT22;45073;52.740;6.784;2023-03-01T05:06:50;-1.70;99.90
59301;DHT22;45073;52.740;6.784;2023-03-01T05:09:16;-1.70;99.90
59301;DHT22;45073;52.740;6.784;2023-03-01T05:11:42;-1.70;99.90
59301;DHT22;45073;52.740;6.784;2023-03-01T05:14:09;-1.60;99.90
59301;DHT22;45073;52.740;6.784;2023-03-01T05:16:35;-1.60;99.90
59301;DHT22;45073;52.740;6.784;2023-03-01T05:19:02;-1.70;99.90
59301;DHT22;45073;52.740;6.784;2023-03-01T05:21:37;-1.60;99.90
59301;DHT22;45073;52.740;6.784;2023-03-01T05:24:23;-1.60;99.90
59301;DHT22;45073;52.740;6.784;2023-03-01T05:26:49;-1.70;99.90
59301;DHT22;45073;52.740;6.784;2023-03-01T05:31:43;-1.60;99.90
59301;DHT22;45073;52.740;6.784;2023-03-01T05:34:09;-1.70;99.90
59301;DHT22;45073;52.740;6.784;2023-03-01T05:36:34;-1.70;99.90
59301;DHT22;45073;52.740;6.784;2023-03-01T05:39:00;-1.70;99.90
59301;DHT22;45073;52.740;6.784;2023-03-01T05:41:26;-1.70;99.90
59301;DHT22;45073;52.740;6.784;2023-03-01T05:43:51;-1.70;99.90
59301;DHT22;45073;52.740;6.784;2023-03-01T05:46:17;-1.70;99.90
59301;DHT22;45073;52.740;6.784;2023-03-01T05:48:43;-1.70;99.90
59301;DHT22;45073;52.740;6.784;2023-03-01T05:51:09;-1.70;99.90
59301;DHT22;45073;52.740;6.784;2023-03-01T05:53:34;-1.70;99.90
59301;DHT22;45073;52.740;6.784;2023-03-01T05:56:03;-1.80;99.90
59301;DHT22;45073;52.740;6.784;2023-03-01T05:58:29;-1.80;99.90
59301;DHT22;45073;52.740;6.784;2023-03-01T06:00:54;-1.80;99.90
59301;DHT22;45073;52.740;6.784;2023-03-01T06:03:20;-1.70;99.90
59301;DHT22;45073;52.740;6.784;2023-03-01T06:05:46;-1.70;99.90
59301;DHT22;45073;52.740;6.784;2023-03-01T06:08:12;-1.80;99.90
59301;DHT22;45073;52.740;6.784;2023-03-01T06:10:38;-1.70;99.90
59301;DHT22;45073;52.740;6.784;2023-03-01T06:13:04;-1.80;99.90
59301;DHT22;45073;52.740;6.784;2023-03-01T06:15:30;-1.80;99.90
59301;DHT22;45073;52.740;6.784;2023-03-01T06:17:56;-1.80;99.90
59301;DHT22;45073;52.740;6.784;2023-03-01T06:20:26;-1.80;99.90
59301;DHT22;45073;52.740;6.784;2023-03-01T06:22:52;-1.80;99.90
59301;DHT22;45073;52.740;6.784;2023-03-01T06:25:22;-1.80;99.90
59301;DHT22;45073;52.740;6.784;2023-03-01T06:27:48;-1.80;99.90
59301;DHT22;45073;52.740;6.784;2023-03-01T06:30:16;-1.80;99.90
59301;DHT22;45073;52.740;6.784;2023-03-01T06:32:43;-1.80;99.90
59301;DHT22;45073;52.740;6.784;2023-03-01T06:35:13;-1.80;99.90
59301;DHT22;45073;52.740;6.784;2023-03-01T06:37:39;-1.80;99.90
59301;DHT22;45073;52.740;6.784;2023-03-01T06:40:06;-1.80;99.90
59301;DHT22;45073;52.740;6.784;2023-03-01T06:42:40;-1.80;99.90
59301;DHT22;45073;52.740;6.784;2023-03-01T06:45:07;-1.70;99.90
59301;DHT22;45073;52.740;6.784;2023-03-01T06:47:33;-1.80;99.90
59301;DHT22;45073;52.740;6.784;2023-03-01T06:50:00;-1.70;99.90
59301;DHT22;45073;52.740;6.784;2023-03-01T06:52:25;-1.70;99.90
59301;DHT22;45073;52.740;6.784;2023-03-01T06:54:51;-1.70;99.90
59301;DHT22;45073;52.740;6.784;2023-03-01T06:57:17;-1.70;99.90
59301;DHT22;45073;52.740;6.784;2023-03-01T06:59:42;-1.60;99.90
59301;DHT22;45073;52.740;6.784;2023-03-01T07:02:11;-1.60;99.90
59301;DHT22;45073;52.740;6.784;2023-03-01T07:04:37;-1.60;99.90
59301;DHT22;45073;52.740;6.784;2023-03-01T07:07:03;-1.60;99.90
59301;DHT22;45073;52.740;6.784;2023-03-01T07:09:29;-1.60;99.90
59301;DHT22;45073;52.740;6.784;2023-03-01T07:11:56;-1.60;99.90
59301;DHT22;45073;52.740;6.784;2023-03-01T07:14:22;-1.60;99.90
59301;DHT22;45073;52.740;6.784;2023-03-01T07:16:49;-1.60;99.90
59301;DHT22;45073;52.740;6.784;2023-03-01T07:19:15;-1.50;99.90
59301;DHT22;45073;52.740;6.784;2023-03-01T07:21:41;-1.50;99.90
59301;DHT22;45073;52.740;6.784;2023-03-01T07:24:07;-1.50;99.90
59301;DHT22;45073;52.740;6.784;2023-03-01T07:26:33;-1.40;99.90
59301;DHT22;45073;52.740;6.784;2023-03-01T07:29:00;-1.40;99.90
59301;DHT22;45073;52.740;6.784;2023-03-01T07:31:25;-1.40;99.90
59301;DHT22;45073;52.740;6.784;2023-03-01T07:33:54;-1.40;99.90
59301;DHT22;45073;52.740;6.784;2023-03-01T07:36:19;-1.40;99.90
59301;DHT22;45073;52.740;6.784;2023-03-01T07:38:45;-1.30;99.90
59301;DHT22;45073;52.740;6.784;2023-03-01T07:41:11;-1.20;99.90
59301;DHT22;45073;52.740;6.784;2023-03-01T07:43:36;-1.10;99.90
59301;DHT22;45073;52.740;6.784;2023-03-01T07:46:03;-1.10;99.90
59301;DHT22;45073;52.740;6.784;2023-03-01T07:48:29;-0.90;99.90
59301;DHT22;45073;52.740;6.784;2023-03-01T07:50:58;-0.90;99.90
59301;DHT22;45073;52.740;6.784;2023-03-01T07:53:24;-0.80;99.90
59301;DHT22;45073;52.740;6.784;2023-03-01T07:55:49;-0.70;99.90
59301;DHT22;45073;52.740;6.784;2023-03-01T07:58:15;-0.60;99.90
59301;DHT22;45073;52.740;6.784;2023-03-01T08:00:41;-0.40;99.90
59301;DHT22;45073;52.740;6.784;2023-03-01T08:03:06;-0.30;99.90
59301;DHT22;45073;52.740;6.784;2023-03-01T08:05:32;-0.20;99.90
59301;DHT22;45073;52.740;6.784;2023-03-01T08:07:58;-0.20;99.90
59301;DHT22;45073;52.740;6.784;2023-03-01T08:10:24;-0.10;99.90
59301;DHT22;45073;52.740;6.784;2023-03-01T08:12:51;0.00;99.90
59301;DHT22;45073;52.740;6.784;2023-03-01T08:15:17;0.10;99.90
59301;DHT22;45073;52.740;6.784;2023-03-01T08:17:44;0.20;99.90
59301;DHT22;45073;52.740;6.784;2023-03-01T08:20:10;0.30;99.90
59301;DHT22;45073;52.740;6.784;2023-03-01T08:22:37;0.40;99.90
59301;DHT22;45073;52.740;6.784;2023-03-01T08:25:03;0.50;99.90
59301;DHT22;45073;52.740;6.784;2023-03-01T08:27:29;0.60;99.90
59301;DHT22;45073;52.740;6.784;2023-03-01T08:29:54;0.70;99.90
59301;DHT22;45073;52.740;6.784;2023-03-01T08:32:20;0.90;99.90
59301;DHT22;45073;52.740;6.784;2023-03-01T08:34:47;1.00;99.90
59301;DHT22;45073;52.740;6.784;2023-03-01T08:37:13;1.10;99.90
59301;DHT22;45073;52.740;6.784;2023-03-01T08:39:39;1.20;99.90
59301;DHT22;45073;52.740;6.784;2023-03-01T08:42:04;1.40;99.90
59301;DHT22;45073;52.740;6.784;2023-03-01T08:44:30;1.50;99.90
59301;DHT22;45073;52.740;6.784;2023-03-01T08:46:56;1.60;99.90
59301;DHT22;45073;52.740;6.784;2023-03-01T08:49:23;1.80;99.90
59301;DHT22;45073;52.740;6.784;2023-03-01T08:51:49;1.80;99.90
59301;DHT22;45073;52.740;6.784;2023-03-01T08:54:19;2.00;99.90
59301;DHT22;45073;52.740;6.784;2023-03-01T08:56:45;2.10;99.90
59301;DHT22;45073;52.740;6.784;2023-03-01T08:59:11;2.20;99.90
59301;DHT22;45073;52.740;6.784;2023-03-01T09:01:37;2.30;99.90
59301;DHT22;45073;52.740;6.784;2023-03-01T09:04:03;2.50;99.90
59301;DHT22;45073;52.740;6.784;2023-03-01T09:06:34;2.60;99.90
59301;DHT22;45073;52.740;6.784;2023-03-01T09:09:00;2.80;99.90
59301;DHT22;45073;52.740;6.784;2023-03-01T09:11:26;2.90;99.90
59301;DHT22;45073;52.740;6.784;2023-03-01T09:13:53;3.00;99.90
59301;DHT22;45073;52.740;6.784;2023-03-01T09:16:23;3.20;99.90
59301;DHT22;45073;52.740;6.784;2023-03-01T09:18:53;3.40;99.90
59301;DHT22;45073;52.740;6.784;2023-03-01T09:21:20;3.50;99.90
59301;DHT22;45073;52.740;6.784;2023-03-01T09:23:47;3.70;99.90
59301;DHT22;45073;52.740;6.784;2023-03-01T09:26:19;3.90;99.90
59301;DHT22;45073;52.740;6.784;2023-03-01T09:28:47;4.10;99.90
59301;DHT22;45073;52.740;6.784;2023-03-01T09:31:14;4.30;99.80
59301;DHT22;45073;52.740;6.784;2023-03-01T09:33:40;4.40;98.60
59301;DHT22;45073;52.740;6.784;2023-03-01T09:36:10;4.60;97.70
59301;DHT22;45073;52.740;6.784;2023-03-01T09:38:36;4.80;95.20
59301;DHT22;45073;52.740;6.784;2023-03-01T09:41:08;4.90;93.70
59301;DHT22;45073;52.740;6.784;2023-03-01T09:43:45;5.10;92.80
59301;DHT22;45073;52.740;6.784;2023-03-01T09:46:14;5.30;91.20
59301;DHT22;45073;52.740;6.784;2023-03-01T09:49:03;5.40;89.20
59301;DHT22;45073;52.740;6.784;2023-03-01T09:51:35;5.50;88.40
59301;DHT22;45073;52.740;6.784;2023-03-01T09:54:02;5.60;87.00
59301;DHT22;45073;52.740;6.784;2023-03-01T09:56:33;5.80;86.00
59301;DHT22;45073;52.740;6.784;2023-03-01T10:01:40;6.10;83.90
59301;DHT22;45073;52.740;6.784;2023-03-01T10:04:40;6.20;82.90
59301;DHT22;45073;52.740;6.784;2023-03-01T10:09:59;6.50;81.60
59301;DHT22;45073;52.740;6.784;2023-03-01T10:12:32;6.60;81.10
59301;DHT22;45073;52.740;6.784;2023-03-01T10:15:15;6.80;80.70
59301;DHT22;45073;52.740;6.784;2023-03-01T10:20:21;7.00;78.80
59301;DHT22;45073;52.740;6.784;2023-03-01T10:22:47;7.20;78.60
59301;DHT22;45073;52.740;6.784;2023-03-01T10:28:25;7.40;77.10
59301;DHT22;45073;52.740;6.784;2023-03-01T10:30:51;7.60;76.10
59301;DHT22;45073;52.740;6.784;2023-03-01T10:33:23;7.60;73.30
59301;DHT22;45073;52.740;6.784;2023-03-01T10:35:50;7.80;75.60
59301;DHT22;45073;52.740;6.784;2023-03-01T10:38:17;8.00;75.50
59301;DHT22;45073;52.740;6.784;2023-03-01T10:41:09;8.20;75.40
59301;DHT22;45073;52.740;6.784;2023-03-01T10:43:57;8.30;73.90
59301;DHT22;45073;52.740;6.784;2023-03-01T10:46:37;8.50;74.00
59301;DHT22;45073;52.740;6.784;2023-03-01T10:49:13;8.60;73.70
59301;DHT22;45073;52.740;6.784;2023-03-01T10:51:45;8.80;72.40
59301;DHT22;45073;52.740;6.784;2023-03-01T10:54:26;8.80;71.90
59301;DHT22;45073;52.740;6.784;2023-03-01T10:56:54;8.90;70.80
59301;DHT22;45073;52.740;6.784;2023-03-01T10:59:35;9.00;71.10
59301;DHT22;45073;52.740;6.784;2023-03-01T11:02:26;9.20;70.50
59301;DHT22;45073;52.740;6.784;2023-03-01T11:05:01;9.30;69.30
59301;DHT22;45073;52.740;6.784;2023-03-01T11:07:27;9.40;69.30
59301;DHT22;45073;52.740;6.784;2023-03-01T11:09:53;9.50;69.10
59301;DHT22;45073;52.740;6.784;2023-03-01T11:12:20;9.50;68.20
59301;DHT22;45073;52.740;6.784;2023-03-01T11:14:52;9.70;67.70
59301;DHT22;45073;52.740;6.784;2023-03-01T11:17:24;9.80;67.40
59301;DHT22;45073;52.740;6.784;2023-03-01T11:22:55;10.00;66.30
59301;DHT22;45073;52.740;6.784;2023-03-01T11:25:25;10.10;66.30
59301;DHT22;45073;52.740;6.784;2023-03-01T11:27:52;10.20;66.30
59301;DHT22;45073;52.740;6.784;2023-03-01T11:30:26;10.40;66.30
59301;DHT22;45073;52.740;6.784;2023-03-01T11:33:03;10.50;65.50
59301;DHT22;45073;52.740;6.784;2023-03-01T11:35:32;10.60;64.80
59301;DHT22;45073;52.740;6.784;2023-03-01T11:40:40;10.70;64.70
59301;DHT22;45073;52.740;6.784;2023-03-01T11:48:34;10.90;63.50
59301;DHT22;45073;52.740;6.784;2023-03-01T11:51:52;11.00;63.50
59301;DHT22;45073;52.740;6.784;2023-03-01T11:54:17;11.10;63.70
59301;DHT22;45073;52.740;6.784;2023-03-01T11:56:57;11.20;63.20
59301;DHT22;45073;52.740;6.784;2023-03-01T11:59:43;11.30;62.80
59301;DHT22;45073;52.740;6.784;2023-03-01T12:05:16;11.60;62.40
59301;DHT22;45073;52.740;6.784;2023-03-01T12:08:07;11.80;62.50
59301;DHT22;45073;52.740;6.784;2023-03-01T12:24:58;13.00;60.30
59301;DHT22;45073;52.740;6.784;2023-03-01T12:30:56;13.30;59.10
59301;DHT22;45073;52.740;6.784;2023-03-01T12:33:38;13.60;59.00
59301;DHT22;45073;52.740;6.784;2023-03-01T12:50:26;14.60;56.80
59301;DHT22;45073;52.740;6.784;2023-03-01T12:52:56;14.90;55.10
59301;DHT22;45073;52.740;6.784;2023-03-01T12:55:38;14.90;54.80
59301;DHT22;45073;52.740;6.784;2023-03-01T13:01:12;14.90;54.20
59301;DHT22;45073;52.740;6.784;2023-03-01T13:06:29;16.10;53.40
59301;DHT22;45073;52.740;6.784;2023-03-01T13:11:46;17.30;50.70
59301;DHT22;45073;52.740;6.784;2023-03-01T13:14:43;17.90;50.50
59301;DHT22;45073;52.740;6.784;2023-03-01T13:17:30;19.30;48.90
59301;DHT22;45073;52.740;6.784;2023-03-01T13:19:57;20.90;45.20
59301;DHT22;45073;52.740;6.784;2023-03-01T13:22:29;22.10;44.00
59301;DHT22;45073;52.740;6.784;2023-03-01T13:25:19;23.10;42.10
59301;DHT22;45073;52.740;6.784;2023-03-01T13:27:46;24.10;38.50
59301;DHT22;45073;52.740;6.784;2023-03-01T13:35:51;26.40;37.00
59301;DHT22;45073;52.740;6.784;2023-03-01T13:41:03;27.60;34.60
59301;DHT22;45073;52.740;6.784;2023-03-01T13:43:35;28.20;35.20
59301;DHT22;45073;52.740;6.784;2023-03-01T13:46:11;28.60;34.10
59301;DHT22;45073;52.740;6.784;2023-03-01T13:48:39;28.70;33.50
59301;DHT22;45073;52.740;6.784;2023-03-01T13:51:08;28.50;32.40
59301;DHT22;45073;52.740;6.784;2023-03-01T13:53:39;28.40;32.50
59301;DHT22;45073;52.740;6.784;2023-03-01T13:56:21;28.70;32.00
59301;DHT22;45073;52.740;6.784;2023-03-01T13:58:50;28.80;31.60
59301;DHT22;45073;52.740;6.784;2023-03-01T14:01:27;28.90;31.70
59301;DHT22;45073;52.740;6.784;2023-03-01T14:03:53;29.10;30.80
59301;DHT22;45073;52.740;6.784;2023-03-01T14:06:22;29.20;30.80
59301;DHT22;45073;52.740;6.784;2023-03-01T14:08:50;29.50;30.70
59301;DHT22;45073;52.740;6.784;2023-03-01T14:16:53;28.20;30.20
59301;DHT22;45073;52.740;6.784;2023-03-01T14:19:25;27.90;30.90
59301;DHT22;45073;52.740;6.784;2023-03-01T14:24:39;28.10;30.50
59301;DHT22;45073;52.740;6.784;2023-03-01T14:27:11;27.60;30.50
59301;DHT22;45073;52.740;6.784;2023-03-01T14:29:39;27.20;30.30
59301;DHT22;45073;52.740;6.784;2023-03-01T14:34:45;26.50;31.10
59301;DHT22;45073;52.740;6.784;2023-03-01T14:37:30;26.10;31.40
59301;DHT22;45073;52.740;6.784;2023-03-01T14:39:58;26.10;31.00
59301;DHT22;45073;52.740;6.784;2023-03-01T14:42:28;25.70;31.40
59301;DHT22;45073;52.740;6.784;2023-03-01T14:44:55;25.40;31.50
59301;DHT22;45073;52.740;6.784;2023-03-01T14:47:33;25.20;31.80
59301;DHT22;45073;52.740;6.784;2023-03-01T14:50:25;25.20;32.30
59301;DHT22;45073;52.740;6.784;2023-03-01T14:52:56;25.00;32.30
59301;DHT22;45073;52.740;6.784;2023-03-01T14:58:03;25.40;32.60
59301;DHT22;45073;52.740;6.784;2023-03-01T15:00:31;25.40;32.50
59301;DHT22;45073;52.740;6.784;2023-03-01T15:03:06;25.30;32.60
59301;DHT22;45073;52.740;6.784;2023-03-01T15:05:35;25.70;32.60
59301;DHT22;45073;52.740;6.784;2023-03-01T15:08:02;26.60;32.20
59301;DHT22;45073;52.740;6.784;2023-03-01T15:10:31;27.30;31.20
59301;DHT22;45073;52.740;6.784;2023-03-01T15:13:10;28.00;31.00
59301;DHT22;45073;52.740;6.784;2023-03-01T15:15:46;28.70;30.50
59301;DHT22;45073;52.740;6.784;2023-03-01T15:18:21;29.00;30.20
59301;DHT22;45073;52.740;6.784;2023-03-01T15:20:48;29.40;29.80
59301;DHT22;45073;52.740;6.784;2023-03-01T15:23:27;29.40;29.70
59301;DHT22;45073;52.740;6.784;2023-03-01T15:25:54;29.70;29.50
59301;DHT22;45073;52.740;6.784;2023-03-01T15:28:29;30.00;29.10
59301;DHT22;45073;52.740;6.784;2023-03-01T15:30:58;30.20;29.00
59301;DHT22;45073;52.740;6.784;2023-03-01T15:35:57;30.80;28.90
59301;DHT22;45073;52.740;6.784;2023-03-01T15:38:34;30.50;28.50
59301;DHT22;45073;52.740;6.784;2023-03-01T15:41:26;30.60;28.50
59301;DHT22;45073;52.740;6.784;2023-03-01T15:43:51;30.20;28.20
59301;DHT22;45073;52.740;6.784;2023-03-01T15:46:29;30.00;28.40
59301;DHT22;45073;52.740;6.784;2023-03-01T15:48:59;29.70;28.20
59301;DHT22;45073;52.740;6.784;2023-03-01T15:51:45;29.80;28.50
59301;DHT22;45073;52.740;6.784;2023-03-01T15:54:18;29.30;28.10
59301;DHT22;45073;52.740;6.784;2023-03-01T15:56:44;29.30;28.50
59301;DHT22;45073;52.740;6.784;2023-03-01T15:59:11;29.10;28.60
59301;DHT22;45073;52.740;6.784;2023-03-01T16:01:38;29.10;28.60
59301;DHT22;45073;52.740;6.784;2023-03-01T16:04:04;28.90;28.60
59301;DHT22;45073;52.740;6.784;2023-03-01T16:06:30;28.60;28.90
59301;DHT22;45073;52.740;6.784;2023-03-01T16:08:56;28.40;29.10
59301;DHT22;45073;52.740;6.784;2023-03-01T16:11:22;28.10;28.90
59301;DHT22;45073;52.740;6.784;2023-03-01T16:13:48;27.70;28.90
59301;DHT22;45073;52.740;6.784;2023-03-01T16:16:15;27.30;29.30
59301;DHT22;45073;52.740;6.784;2023-03-01T16:18:46;26.00;29.70
59301;DHT22;45073;52.740;6.784;2023-03-01T16:21:25;25.00;30.50
59301;DHT22;45073;52.740;6.784;2023-03-01T16:23:51;24.00;31.60
59301;DHT22;45073;52.740;6.784;2023-03-01T16:26:17;22.80;32.90
59301;DHT22;45073;52.740;6.784;2023-03-01T16:28:44;22.00;34.10
59301;DHT22;45073;52.740;6.784;2023-03-01T16:31:11;21.20;35.20
59301;DHT22;45073;52.740;6.784;2023-03-01T16:33:37;20.70;36.30
59301;DHT22;45073;52.740;6.784;2023-03-01T16:36:11;20.20;37.00
59301;DHT22;45073;52.740;6.784;2023-03-01T16:38:37;19.70;37.50
59301;DHT22;45073;52.740;6.784;2023-03-01T16:41:04;19.20;38.10
59301;DHT22;45073;52.740;6.784;2023-03-01T16:43:30;18.70;38.60
59301;DHT22;45073;52.740;6.784;2023-03-01T16:45:56;18.30;39.00
59301;DHT22;45073;52.740;6.784;2023-03-01T16:48:21;17.90;39.70
59301;DHT22;45073;52.740;6.784;2023-03-01T16:50:56;17.60;40.10
59301;DHT22;45073;52.740;6.784;2023-03-01T16:53:22;17.10;40.90
59301;DHT22;45073;52.740;6.784;2023-03-01T16:55:53;16.70;41.60
59301;DHT22;45073;52.740;6.784;2023-03-01T16:58:19;16.40;42.10
59301;DHT22;45073;52.740;6.784;2023-03-01T17:00:45;15.90;42.80
59301;DHT22;45073;52.740;6.784;2023-03-01T17:03:10;15.60;43.40
59301;DHT22;45073;52.740;6.784;2023-03-01T17:05:39;15.20;44.10
59301;DHT22;45073;52.740;6.784;2023-03-01T17:08:05;14.90;44.80
59301;DHT22;45073;52.740;6.784;2023-03-01T17:10:32;14.60;45.50
59301;DHT22;45073;52.740;6.784;2023-03-01T17:12:58;14.30;45.80
59301;DHT22;45073;52.740;6.784;2023-03-01T17:15:24;14.10;46.50
59301;DHT22;45073;52.740;6.784;2023-03-01T17:17:50;13.90;46.90
59301;DHT22;45073;52.740;6.784;2023-03-01T17:20:16;13.70;47.50
59301;DHT22;45073;52.740;6.784;2023-03-01T17:22:42;13.30;47.60
59301;DHT22;45073;52.740;6.784;2023-03-01T17:25:09;12.90;48.00
59301;DHT22;45073;52.740;6.784;2023-03-01T17:27:36;12.80;49.40
59301;DHT22;45073;52.740;6.784;2023-03-01T17:30:03;12.70;49.70
59301;DHT22;45073;52.740;6.784;2023-03-01T17:32:29;12.30;49.60
59301;DHT22;45073;52.740;6.784;2023-03-01T17:34:54;12.20;50.60
59301;DHT22;45073;52.740;6.784;2023-03-01T17:37:20;11.90;50.60
59301;DHT22;45073;52.740;6.784;2023-03-01T17:39:45;11.80;51.50